createdAt,value
2018-04-09T00:02:15.116Z,12.70
2018-04-09T00:04:44.024Z,13.87
2018-04-09T00:07:12.154Z,12.87
2018-04-09T00:09:40.308Z,11.80
2018-04-09T00:12:08.520Z,12.27
2018-04-09T00:14:37.418Z,11.87
2018-04-09T00:17:05.568Z,13.40
2018-04-09T00:19:33.723Z,14.93
2018-04-09T00:22:01.840Z,13.93
2018-04-09T00:24:29.981Z,12.03
2018-04-09T00:26:58.890Z,13.37
2018-04-09T00:29:27.434Z,12.37
2018-04-09T00:31:55.562Z,12.47
2018-04-09T00:34:23.730Z,11.27
2018-04-09T00:36:51.871Z,13.30
2018-04-09T00:39:20.780Z,14.30
2018-04-09T00:41:48.931Z,14.67
2018-04-09T00:44:17.825Z,15.17
2018-04-09T00:46:46.739Z,13.90
2018-04-09T00:49:14.871Z,13.50
2018-04-09T00:51:43.023Z,13.67
2018-04-09T00:54:11.158Z,12.40
2018-04-09T00:56:39.304Z,15.90
2018-04-09T00:59:08.193Z,13.40
2018-04-09T01:01:37.104Z,14.00
2018-04-09T01:04:05.232Z,13.53
2018-04-09T01:06:33.379Z,15.93
2018-04-09T01:09:01.506Z,14.93
2018-04-09T01:11:29.659Z,13.93
2018-04-09T01:13:57.781Z,14.80
2018-04-09T01:16:25.928Z,14.77
2018-04-09T01:18:54.067Z,13.90
2018-04-09T01:21:22.218Z,14.30
2018-04-09T01:23:50.345Z,15.17
2018-04-09T01:26:18.491Z,12.30
2018-04-09T01:28:46.616Z,15.30
2018-04-09T01:31:14.758Z,14.10
2018-04-09T01:33:42.896Z,14.53
2018-04-09T01:36:11.058Z,12.90
2018-04-09T01:38:39.177Z,14.60
2018-04-09T01:41:07.309Z,15.87
2018-04-09T01:43:35.473Z,14.00
2018-04-09T01:46:03.614Z,15.77
2018-04-09T01:48:31.768Z,14.30
2018-04-09T01:50:59.999Z,14.10
2018-04-09T01:53:28.999Z,14.43
2018-04-09T01:55:57.126Z,15.00
2018-04-09T01:58:25.271Z,13.30
2018-04-09T02:00:53.458Z,13.80
2018-04-09T02:03:21.613Z,14.13
2018-04-09T02:05:49.753Z,12.90
2018-04-09T02:08:17.999Z,12.73
2018-04-09T02:10:46.134Z,14.33
2018-04-09T02:13:14.295Z,12.57
2018-04-09T02:15:42.437Z,14.37
2018-04-09T02:18:10.598Z,14.07
2018-04-09T02:20:38.726Z,14.47
2018-04-09T02:23:06.887Z,13.87
2018-04-09T02:25:35.015Z,14.50
2018-04-09T02:28:03.148Z,14.17
2018-04-09T02:30:31.296Z,14.10
2018-04-09T02:33:00.195Z,14.07
2018-04-09T02:35:28.342Z,14.43
2018-04-09T02:37:57.236Z,14.30
2018-04-09T02:40:26.150Z,14.83
2018-04-09T02:42:54.286Z,14.80
2018-04-09T02:45:23.194Z,14.37
2018-04-09T02:47:52.107Z,15.13
2018-04-09T02:50:20.251Z,15.50
2018-04-09T02:52:49.149Z,13.87
2018-04-09T02:55:18.121Z,15.80
2018-04-09T02:57:46.185Z,14.27
2018-04-09T03:00:15.117Z,15.27
2018-04-09T03:02:43.243Z,17.87
2018-04-09T03:05:11.398Z,16.47
2018-04-09T03:07:39.528Z,15.30
2018-04-09T03:10:08.030Z,16.57
2018-04-09T03:12:36.168Z,15.33
2018-04-09T03:15:04.351Z,13.53
2018-04-09T03:17:32.509Z,15.67
2018-04-09T03:20:00.646Z,14.13
2018-04-09T03:22:28.975Z,14.03
2018-04-09T03:24:57.161Z,15.77
2018-04-09T03:27:25.327Z,15.60
2018-04-09T03:29:53.466Z,14.70
2018-04-09T03:32:22.398Z,13.80
2018-04-09T03:34:50.557Z,14.00
2018-04-09T03:37:18.712Z,13.37
2018-04-09T03:39:46.844Z,13.37
2018-04-09T03:42:14.994Z,14.00
2018-04-09T03:44:43.484Z,13.60
2018-04-09T03:47:11.665Z,14.60
2018-04-09T03:49:39.802Z,13.80
2018-04-09T03:52:07.941Z,14.90
2018-04-09T03:54:36.066Z,15.97
2018-04-09T03:57:04.206Z,16.80
2018-04-09T03:59:32.337Z,16.33
2018-04-09T04:02:01.245Z,16.63
2018-04-09T04:04:29.385Z,16.60
2018-04-09T04:06:57.530Z,18.20
2018-04-09T04:09:25.994Z,15.93
2018-04-09T04:11:54.119Z,16.40
2018-04-09T04:14:23.380Z,16.90
2018-04-09T04:17:03.153Z,15.80
2018-04-09T04:19:42.997Z,15.07
2018-04-09T04:22:11.155Z,15.60
2018-04-09T04:24:39.294Z,15.77
2018-04-09T04:27:07.423Z,16.23
2018-04-09T04:29:36.327Z,18.77
2018-04-09T04:32:05.237Z,17.13
2018-04-09T04:34:33.382Z,17.07
2018-04-09T04:37:02.267Z,18.63
2018-04-09T04:39:31.191Z,18.43
2018-04-09T04:41:59.430Z,16.97
2018-04-09T04:44:27.559Z,18.33
2018-04-09T04:46:55.733Z,17.53
2018-04-09T04:49:23.872Z,16.63
2018-04-09T04:51:52.008Z,17.10
2018-04-09T04:54:20.161Z,19.10
2018-04-09T04:56:48.289Z,19.17
2018-04-09T04:59:16.416Z,18.57
2018-04-09T05:01:45.400Z,18.57
2018-04-09T05:04:13.621Z,17.60
2018-04-09T05:06:41.774Z,18.20
2018-04-09T05:09:10.682Z,17.67
2018-04-09T05:11:38.840Z,18.30
2018-04-09T05:14:06.973Z,18.00
2018-04-09T05:16:35.115Z,17.43
2018-04-09T05:19:03.255Z,15.87
2018-04-09T05:21:31.415Z,18.50
2018-04-09T05:24:00.311Z,18.40
2018-04-09T05:26:28.458Z,17.47
2018-04-09T05:28:56.586Z,17.60
2018-04-09T05:31:24.729Z,19.50
2018-04-09T05:33:52.874Z,21.60
2018-04-09T05:36:22.513Z,19.60
2018-04-09T05:38:50.667Z,21.43
2018-04-09T05:41:19.582Z,20.87
2018-04-09T05:43:47.710Z,22.53
2018-04-09T05:46:16.129Z,23.97
2018-04-09T05:48:44.334Z,22.17
2018-04-09T05:51:12.470Z,21.63
2018-04-09T05:53:40.632Z,22.57
2018-04-09T05:56:09.542Z,20.87
2018-04-09T05:58:37.668Z,19.20
2018-04-09T06:01:05.865Z,21.80
2018-04-09T06:03:34.009Z,20.73
2018-04-09T06:06:02.264Z,20.67
2018-04-09T06:08:30.386Z,18.70
2018-04-09T06:10:58.518Z,20.10
2018-04-09T06:13:26.657Z,19.50
2018-04-09T06:15:54.783Z,21.00
2018-04-09T06:18:23.906Z,20.97
2018-04-09T06:20:52.032Z,17.90
2018-04-09T06:23:20.945Z,16.43
2018-04-09T06:25:49.248Z,17.27
2018-04-09T06:28:17.395Z,15.70
2018-04-09T06:30:45.534Z,17.23
2018-04-09T06:33:13.671Z,18.23
2018-04-09T06:35:41.793Z,19.13
2018-04-09T06:38:10.706Z,20.00
2018-04-09T06:40:39.553Z,19.40
2018-04-09T06:43:07.708Z,20.03
2018-04-09T06:45:35.846Z,19.77
2018-04-09T06:48:03.982Z,20.90
2018-04-09T06:50:32.119Z,20.73
2018-04-09T06:53:00.270Z,19.87
2018-04-09T06:55:28.406Z,20.00
2018-04-09T06:57:57.314Z,20.30
2018-04-09T07:00:25.446Z,21.50
2018-04-09T07:02:53.590Z,19.80
2018-04-09T07:05:21.717Z,20.13
2018-04-09T07:07:49.866Z,19.77
2018-04-09T07:10:18.765Z,20.40
2018-04-09T07:12:47.679Z,19.83
2018-04-09T07:15:15.815Z,22.30
2018-04-09T07:17:43.969Z,21.93
2018-04-09T07:20:12.463Z,21.27
2018-04-09T07:22:40.602Z,21.20
2018-04-09T07:25:08.751Z,21.87
2018-04-09T07:27:36.886Z,20.37
2018-04-09T07:30:05.802Z,21.57
2018-04-09T07:32:33.938Z,21.97
2018-04-09T07:35:02.860Z,22.00
2018-04-09T07:37:31.050Z,23.93
2018-04-09T07:39:59.934Z,22.23
2018-04-09T07:42:28.061Z,22.50
2018-04-09T07:44:56.976Z,22.23
2018-04-09T07:47:25.861Z,22.60
2018-04-09T07:49:54.006Z,21.20
2018-04-09T07:52:22.153Z,19.37
2018-04-09T07:54:50.296Z,21.13
2018-04-09T07:57:18.433Z,19.43
2018-04-09T07:59:47.372Z,20.23
2018-04-09T08:02:15.494Z,20.43
2018-04-09T08:04:44.406Z,20.07
2018-04-09T08:07:12.538Z,20.17
2018-04-09T08:09:40.666Z,21.13
2018-04-09T08:12:08.802Z,22.20
2018-04-09T08:14:37.689Z,18.60
2018-04-09T08:17:06.618Z,22.33
2018-04-09T08:19:34.743Z,19.90
2018-04-09T08:22:02.885Z,21.53
2018-04-09T08:24:31.026Z,17.97
2018-04-09T08:26:59.169Z,18.23
2018-04-09T08:29:28.066Z,20.30
2018-04-09T08:31:56.977Z,19.07
2018-04-09T08:34:25.101Z,18.30
2018-04-09T08:36:53.249Z,17.83
2018-04-09T08:39:21.378Z,19.60
2018-04-09T08:41:49.572Z,21.57
2018-04-09T08:44:17.694Z,20.00
2018-04-09T08:46:46.605Z,20.40
2018-04-09T08:49:15.499Z,19.37
2018-04-09T08:51:43.646Z,19.87
2018-04-09T08:54:12.550Z,21.50
2018-04-09T08:56:40.686Z,18.63
2018-04-09T08:59:08.838Z,20.00
2018-04-09T09:01:36.977Z,20.87
2018-04-09T09:04:05.489Z,18.20
2018-04-09T09:06:33.617Z,18.93
2018-04-09T09:09:02.534Z,19.90
2018-04-09T09:11:30.662Z,18.23
2018-04-09T09:13:58.815Z,19.93
2018-04-09T09:16:26.966Z,18.37
2018-04-09T09:18:55.131Z,18.40
2018-04-09T09:21:23.267Z,19.37
2018-04-09T09:23:51.419Z,18.17
2018-04-09T09:26:20.317Z,18.93
2018-04-09T09:28:49.405Z,18.50
2018-04-09T09:31:18.304Z,17.33
2018-04-09T09:33:46.597Z,18.97
2018-04-09T09:36:14.721Z,18.70
2018-04-09T09:38:43.141Z,17.60
2018-04-09T09:41:11.274Z,18.93
2018-04-09T09:43:39.401Z,18.70
2018-04-09T09:46:07.572Z,18.07
2018-04-09T09:48:35.703Z,17.53
2018-04-09T09:51:04.618Z,17.60
2018-04-09T09:53:32.750Z,16.83
2018-04-09T09:56:00.899Z,19.17
2018-04-09T09:58:29.035Z,15.43
2018-04-09T10:01:07.087Z,17.13
2018-04-09T10:03:35.312Z,18.60
2018-04-09T10:06:03.587Z,17.60
2018-04-09T10:08:31.863Z,17.53
2018-04-09T10:11:00.018Z,17.27
2018-04-09T10:13:28.906Z,16.20
2018-04-09T10:15:57.058Z,17.20
2018-04-09T10:18:25.954Z,16.23
2018-04-09T10:20:54.845Z,16.07
2018-04-09T10:23:23.750Z,15.80
2018-04-09T10:25:51.889Z,16.27
2018-04-09T10:28:20.033Z,16.83
2018-04-09T10:30:48.161Z,15.07
2018-04-09T10:33:16.302Z,17.80
2018-04-09T10:35:44.443Z,17.43
2018-04-09T10:38:12.590Z,16.80
2018-04-09T10:40:40.724Z,16.60
2018-04-09T10:43:08.865Z,16.03
2018-04-09T10:45:37.826Z,21.67
2018-04-09T10:48:05.977Z,16.40
2018-04-09T10:50:34.900Z,18.40
2018-04-09T10:53:03.087Z,15.60
2018-04-09T10:55:31.213Z,15.97
2018-04-09T10:57:59.361Z,15.83
2018-04-09T11:00:27.834Z,14.87
2018-04-09T11:02:55.958Z,16.47
2018-04-09T11:05:24.089Z,14.20
2018-04-09T11:07:52.205Z,14.30
2018-04-09T11:10:20.350Z,14.57
2018-04-09T11:12:48.513Z,14.50
2018-04-09T11:15:16.841Z,14.23
2018-04-09T11:17:45.097Z,14.63
2018-04-09T11:20:13.238Z,12.70
2018-04-09T11:22:42.129Z,14.70
2018-04-09T11:25:10.293Z,13.47
2018-04-09T11:27:39.180Z,13.40
2018-04-09T11:30:08.110Z,14.23
2018-04-09T11:32:36.245Z,13.23
2018-04-09T11:35:04.398Z,11.80
2018-04-09T11:37:32.951Z,13.77
2018-04-09T11:40:01.094Z,13.10
2018-04-09T11:42:29.225Z,13.03
2018-04-09T11:44:57.455Z,13.50
2018-04-09T11:47:26.329Z,13.70
2018-04-09T11:49:54.494Z,12.70
2018-04-09T11:52:22.629Z,12.20
2018-04-09T11:54:52.635Z,12.30
2018-04-09T11:57:20.751Z,13.17
2018-04-09T11:59:48.898Z,12.20
2018-04-09T12:02:17.812Z,11.90
2018-04-09T12:04:46.083Z,11.30
2018-04-09T12:07:14.982Z,11.50
2018-04-09T12:09:43.252Z,10.40
2018-04-09T12:12:11.372Z,10.27
2018-04-09T12:14:39.491Z,10.17
2018-04-09T12:17:07.641Z,10.00
2018-04-09T12:19:35.940Z,10.00
2018-04-09T12:22:04.100Z,10.03
2018-04-09T12:24:32.993Z,9.30
2018-04-09T12:27:02.006Z,8.63
2018-04-09T12:29:30.276Z,8.57
2018-04-09T12:31:58.440Z,9.37
2018-04-09T12:34:26.569Z,9.43
2018-04-09T12:36:54.713Z,9.43
2018-04-09T12:39:22.832Z,8.90
2018-04-09T12:41:51.736Z,8.60
2018-04-09T12:44:21.092Z,7.83
2018-04-09T12:46:49.237Z,9.03
2018-04-09T12:49:17.368Z,8.10
2018-04-09T12:51:45.664Z,8.37
2018-04-09T12:54:13.789Z,7.37
2018-04-09T12:56:42.717Z,8.27
2018-04-09T12:59:10.840Z,7.50
2018-04-09T13:01:40.467Z,8.13
2018-04-09T13:04:09.363Z,7.53
2018-04-09T13:06:37.497Z,7.20
2018-04-09T13:09:06.392Z,7.93
2018-04-09T13:11:34.992Z,8.13
2018-04-09T13:14:03.125Z,6.33
2018-04-09T13:16:31.295Z,7.63
2018-04-09T13:18:59.440Z,7.30
2018-04-09T13:21:27.567Z,8.00
2018-04-09T13:23:55.711Z,7.00
2018-04-09T13:26:23.832Z,7.60
2018-04-09T13:28:52.726Z,7.70
2018-04-09T13:31:21.836Z,7.47
2018-04-09T13:33:49.966Z,6.60
2018-04-09T13:36:19.005Z,6.43
2018-04-09T13:38:47.272Z,7.13
2018-04-09T13:41:15.420Z,6.00
2018-04-09T13:43:44.344Z,6.47
2018-04-09T13:46:12.488Z,7.10
2018-04-09T13:48:42.118Z,5.63
2018-04-09T13:51:10.252Z,6.90
2018-04-09T13:53:38.392Z,6.33
2018-04-09T13:56:06.527Z,4.80
2018-04-09T13:58:34.718Z,5.57
2018-04-09T14:01:02.865Z,5.40
2018-04-09T14:03:31.007Z,5.20
2018-04-09T14:05:59.146Z,5.57
2018-04-09T14:08:27.262Z,5.10
2018-04-09T14:10:56.176Z,4.87
2018-04-09T14:13:24.301Z,4.90
2018-04-09T14:15:52.444Z,4.33
2018-04-09T14:18:20.568Z,3.93
2018-04-09T14:20:49.476Z,3.90
2018-04-09T14:23:17.681Z,4.70
2018-04-09T14:25:45.925Z,4.33
2018-04-09T14:28:14.048Z,4.30
2018-04-09T14:30:42.183Z,4.60
2018-04-09T14:33:10.343Z,4.00
2018-04-09T14:35:38.470Z,4.40
2018-04-09T14:38:06.721Z,4.23
2018-04-09T14:40:34.955Z,3.80
2018-04-09T14:43:03.091Z,4.47
2018-04-09T14:45:31.212Z,3.40
2018-04-09T14:47:59.412Z,4.10
2018-04-09T14:50:27.537Z,3.73
2018-04-09T14:52:55.680Z,3.80
2018-04-09T14:55:23.816Z,3.57
2018-04-09T14:57:51.976Z,3.70
2018-04-09T15:00:21.000Z,3.30
2018-04-09T15:02:49.156Z,3.43
2018-04-09T15:05:17.285Z,3.20
2018-04-09T15:07:45.428Z,3.70
2018-04-09T15:10:13.545Z,3.63
2018-04-09T15:12:41.684Z,3.47
2018-04-09T15:15:10.598Z,10.33
2018-04-09T15:17:38.745Z,4.90
2018-04-09T15:20:06.866Z,5.80
2018-04-09T15:22:35.011Z,4.40
2018-04-09T15:25:03.145Z,3.67
2018-04-09T15:27:31.265Z,3.33
2018-04-09T15:29:59.391Z,3.50
2018-04-09T15:32:28.313Z,3.23
2018-04-09T15:34:56.435Z,3.30
2018-04-09T15:37:24.588Z,3.10
2018-04-09T15:39:52.727Z,3.43
2018-04-09T15:42:20.855Z,2.90
2018-04-09T15:44:49.000Z,5.47
2018-04-09T15:47:17.243Z,3.40
2018-04-09T15:49:45.387Z,3.60
2018-04-09T15:52:14.290Z,2.83
2018-04-09T15:54:43.209Z,3.20
2018-04-09T15:57:11.320Z,3.77
2018-04-09T15:59:39.460Z,3.50
2018-04-09T16:02:07.679Z,3.40
2018-04-09T16:04:35.844Z,3.90
2018-04-09T16:07:04.070Z,6.57
2018-04-09T16:09:32.195Z,3.90
2018-04-09T16:12:00.501Z,4.93
2018-04-09T16:14:28.624Z,4.40
2018-04-09T16:16:56.803Z,3.97
2018-04-09T16:19:25.649Z,4.20
2018-04-09T16:21:53.789Z,3.43
2018-04-09T16:24:22.680Z,6.17
2018-04-09T16:26:51.587Z,3.83
2018-04-09T16:29:19.705Z,3.50
2018-04-09T16:31:47.859Z,13.03
2018-04-09T16:34:15.976Z,3.87
2018-04-09T16:36:44.872Z,3.80
2018-04-09T16:39:13.760Z,3.70
2018-04-09T16:41:42.675Z,4.33
2018-04-09T16:44:10.807Z,4.40
2018-04-09T16:46:38.949Z,4.03
2018-04-09T16:49:07.843Z,4.10
2018-04-09T16:51:36.085Z,5.83
2018-04-09T16:54:04.211Z,4.43
2018-04-09T16:56:32.343Z,4.80
2018-04-09T16:59:00.498Z,7.67
2018-04-09T17:01:28.612Z,7.03
2018-04-09T17:03:56.759Z,4.40
2018-04-09T17:06:24.899Z,4.73
2018-04-09T17:08:53.056Z,5.00
2018-04-09T17:11:21.164Z,4.63
2018-04-09T17:13:49.300Z,3.90
2018-04-09T17:16:17.420Z,4.13
2018-04-09T17:18:45.567Z,4.63
2018-04-09T17:21:13.727Z,4.50
2018-04-09T17:23:41.874Z,4.90
2018-04-09T17:26:10.755Z,4.40
2018-04-09T17:28:40.000Z,4.27
2018-04-09T17:31:08.106Z,4.03
2018-04-09T17:33:36.239Z,6.63
2018-04-09T17:36:04.364Z,4.83
2018-04-09T17:38:32.511Z,5.17
2018-04-09T17:41:00.640Z,4.77
2018-04-09T17:43:28.774Z,4.60
2018-04-09T17:45:56.910Z,4.63
2018-04-09T17:48:25.036Z,5.60
2018-04-09T17:50:53.954Z,4.77
2018-04-09T17:53:22.072Z,5.10
2018-04-09T17:55:50.211Z,4.97
2018-04-09T17:58:18.371Z,7.40
2018-04-09T18:00:46.520Z,5.13
2018-04-09T18:03:14.657Z,4.87
2018-04-09T18:05:43.274Z,4.97
2018-04-09T18:08:11.389Z,5.40
2018-04-09T18:10:39.543Z,6.33
2018-04-09T18:13:07.668Z,5.00
2018-04-09T18:15:35.813Z,5.57
2018-04-09T18:18:04.000Z,5.87
2018-04-09T18:20:32.172Z,5.20
2018-04-09T18:23:01.104Z,6.10
2018-04-09T18:25:29.243Z,5.37
2018-04-09T18:27:57.555Z,4.67
2018-04-09T18:30:25.671Z,3.90
2018-04-09T18:32:53.800Z,4.57
2018-04-09T18:35:21.924Z,4.43
2018-04-09T18:37:50.069Z,5.70
2018-04-09T18:40:18.203Z,5.10
2018-04-09T18:42:46.473Z,4.53
2018-04-09T18:45:14.607Z,5.83
2018-04-09T18:47:42.743Z,5.20
2018-04-09T18:50:10.954Z,6.37
2018-04-09T18:52:39.084Z,6.60
2018-04-09T18:55:07.209Z,7.03
2018-04-09T18:57:36.152Z,5.00
2018-04-09T19:00:04.271Z,5.00
2018-04-09T19:02:32.416Z,5.63
2018-04-09T19:05:00.539Z,5.30
2018-04-09T19:07:28.707Z,5.67
2018-04-09T19:09:56.843Z,5.67
2018-04-09T19:12:25.099Z,7.53
2018-04-09T19:14:53.377Z,9.70
2018-04-09T19:17:21.552Z,5.80
2018-04-09T19:19:49.747Z,6.40
2018-04-09T19:22:17.836Z,6.23
2018-04-09T19:24:45.964Z,5.00
2018-04-09T19:27:14.385Z,6.40
2018-04-09T19:29:42.524Z,5.83
2018-04-09T19:32:10.655Z,6.47
2018-04-09T19:34:44.452Z,6.53
2018-04-09T19:37:18.095Z,6.30
2018-04-09T19:39:51.791Z,5.90
2018-04-09T19:42:19.911Z,4.90
2018-04-09T19:44:50.464Z,5.70
2018-04-09T19:47:18.592Z,7.37
2018-04-09T19:49:47.503Z,9.53
2018-04-09T19:52:16.776Z,9.40
2018-04-09T19:54:45.679Z,8.50
2018-04-09T19:57:13.828Z,9.40
2018-04-09T19:59:42.731Z,8.53
2018-04-09T20:02:11.631Z,7.50
2018-04-09T20:04:39.763Z,6.40
2018-04-09T20:07:07.878Z,6.93
2018-04-09T20:09:36.008Z,6.33
2018-04-09T20:12:06.760Z,11.67
2018-04-09T20:14:35.735Z,7.07
2018-04-09T20:17:03.887Z,6.50
2018-04-09T20:19:32.005Z,6.50
2018-04-09T20:22:00.127Z,7.67
2018-04-09T20:24:28.276Z,7.80
2018-04-09T20:26:56.396Z,7.60
2018-04-09T20:29:24.700Z,7.10
2018-04-09T20:31:52.828Z,6.80
2018-04-09T20:34:20.996Z,7.43
2018-04-09T20:36:49.119Z,8.13
2018-04-09T20:39:17.371Z,7.23
2018-04-09T20:41:45.625Z,7.80
2018-04-09T20:44:13.755Z,9.80
2018-04-09T20:46:41.892Z,8.73
2018-04-09T20:49:10.096Z,10.00
2018-04-09T20:51:39.037Z,8.27
2018-04-09T20:54:07.984Z,8.17
2018-04-09T20:56:36.180Z,8.10
2018-04-09T20:59:05.070Z,8.43
2018-04-09T21:01:33.337Z,10.90
2018-04-09T21:04:01.481Z,12.10
2018-04-09T21:06:29.620Z,14.40
2018-04-09T21:08:57.752Z,27.70
2018-04-09T21:11:26.668Z,8.40
2018-04-09T21:13:54.832Z,7.93
2018-04-09T21:16:23.859Z,9.90
2018-04-09T21:18:52.015Z,9.70
2018-04-09T21:21:20.172Z,19.87
2018-04-09T21:23:48.324Z,14.20
2018-04-09T21:26:17.236Z,9.37
2018-04-09T21:28:45.375Z,9.60
2018-04-09T21:31:14.656Z,9.17
2018-04-09T21:33:42.830Z,10.13
2018-04-09T21:36:10.968Z,9.13
2018-04-09T21:38:39.103Z,9.40
2018-04-09T21:41:08.298Z,11.37
2018-04-09T21:43:36.410Z,13.43
2018-04-09T21:46:04.555Z,15.07
2018-04-09T21:48:33.451Z,12.00
2018-04-09T21:51:01.620Z,11.17
2018-04-09T21:53:29.751Z,12.13
2018-04-09T21:55:57.890Z,10.50
2018-04-09T21:58:26.045Z,10.90
2018-04-09T22:00:54.345Z,10.10
2018-04-09T22:03:22.503Z,10.10
2018-04-09T22:05:50.631Z,14.50
2018-04-09T22:08:19.544Z,10.07
2018-04-09T22:10:47.694Z,10.87
2018-04-09T22:13:16.631Z,11.67
2018-04-09T22:15:44.757Z,10.57
2018-04-09T22:18:13.671Z,12.10
2018-04-09T22:20:41.797Z,10.57
2018-04-09T22:23:09.943Z,9.63
2018-04-09T22:25:38.099Z,9.10
2018-04-09T22:28:06.259Z,10.10
2018-04-09T22:30:34.495Z,11.67
2018-04-09T22:33:02.664Z,10.50
2018-04-09T22:35:30.791Z,10.37
2018-04-09T22:37:58.926Z,10.57
2018-04-09T22:40:27.832Z,11.23
2018-04-09T22:42:55.963Z,10.20
2018-04-09T22:45:24.119Z,11.00
2018-04-09T22:47:52.243Z,10.80
2018-04-09T22:50:20.405Z,10.33
2018-04-09T22:52:49.300Z,10.20
2018-04-09T22:55:17.439Z,10.97
2018-04-09T22:57:45.583Z,11.33
2018-04-09T23:00:14.822Z,12.37
2018-04-09T23:02:43.752Z,11.07
2018-04-09T23:05:11.912Z,10.07
2018-04-09T23:07:40.039Z,18.03
2018-04-09T23:10:08.196Z,11.10
2018-04-09T23:12:36.330Z,11.90
2018-04-09T23:15:04.465Z,12.97
2018-04-09T23:17:33.487Z,11.70
2018-04-09T23:20:01.720Z,13.27
2018-04-09T23:22:35.351Z,11.43
2018-04-09T23:25:03.532Z,11.90
2018-04-09T23:27:31.667Z,12.23
2018-04-09T23:29:59.823Z,12.07
2018-04-09T23:32:27.975Z,13.20
2018-04-09T23:34:56.110Z,11.40
2018-04-09T23:37:24.284Z,12.80
2018-04-09T23:39:52.412Z,13.33
2018-04-09T23:42:20.556Z,13.07
2018-04-09T23:44:48.696Z,13.10
2018-04-09T23:47:16.839Z,13.33
2018-04-09T23:49:44.974Z,12.97
2018-04-09T23:52:13.124Z,11.30
2018-04-09T23:54:41.255Z,14.57
2018-04-09T23:57:09.398Z,11.73
2018-04-09T23:59:37.550Z,11.83
